createdAt,value
2023-05-25T00:10:01.987Z,91.66
2023-05-25T00:20:07.414Z,92.44
2023-05-25T00:30:10.606Z,92.39
2023-05-25T00:40:16.520Z,92.11
2023-05-25T00:50:30.574Z,91.74
2023-05-25T01:00:36.907Z,91.42
2023-05-25T01:10:42.258Z,91.98
2023-05-25T01:20:59.766Z,92.28
2023-05-25T01:31:04.095Z,92.83
2023-05-25T01:41:08.149Z,92.83
2023-05-25T01:51:20.302Z,92.93
2023-05-25T02:01:25.161Z,93.12
2023-05-25T02:11:27.865Z,92.77
2023-05-25T02:21:32.643Z,93.10
2023-05-25T02:31:35.452Z,93.50
2023-05-25T02:41:40.125Z,93.10
2023-05-25T02:51:42.832Z,93.17
2023-05-25T03:01:47.099Z,92.67
2023-05-25T03:11:49.872Z,93.04
2023-05-25T03:21:54.003Z,93.10
2023-05-25T03:31:56.988Z,93.10
2023-05-25T03:42:01.561Z,92.77
2023-05-25T03:52:06.118Z,92.84
2023-05-25T04:02:10.145Z,92.60
2023-05-25T04:12:12.893Z,92.70
2023-05-25T04:22:16.981Z,92.90
2023-05-25T04:32:19.654Z,92.99
2023-05-25T04:42:24.222Z,93.55
2023-05-25T04:52:26.899Z,95.47
2023-05-25T05:02:30.961Z,97.53
2023-05-25T05:12:33.621Z,97.97
2023-05-25T05:22:38.622Z,97.74
2023-05-25T05:32:41.541Z,97.96
2023-05-25T05:42:45.592Z,97.82
2023-05-25T05:52:48.250Z,97.79
2023-05-25T06:02:52.428Z,95.49
2023-05-25T06:12:55.102Z,93.90
2023-05-25T06:22:59.093Z,91.81
2023-05-25T06:33:01.936Z,90.94
2023-05-25T06:43:06.081Z,87.09
2023-05-25T06:53:10.852Z,84.62
2023-05-25T07:03:14.850Z,82.01
2023-05-25T07:13:17.542Z,76.28
2023-05-25T07:23:21.710Z,78.12
2023-05-25T07:33:24.394Z,75.91
2023-05-25T07:43:28.756Z,72.37
2023-05-25T07:53:31.459Z,69.97
2023-05-25T08:03:48.024Z,69.25
2023-05-25T08:13:52.218Z,65.83
2023-05-25T08:23:56.871Z,59.85
2023-05-25T08:34:00.421Z,60.51
2023-05-25T08:44:08.001Z,60.22
2023-05-25T08:54:13.771Z,59.71
2023-05-25T09:04:19.645Z,56.08
2023-05-25T09:14:22.997Z,57.70
2023-05-25T09:24:27.177Z,54.35
2023-05-25T09:34:33.897Z,53.79
2023-05-25T09:44:38.362Z,51.39
2023-05-25T09:54:41.084Z,53.14
2023-05-25T10:04:46.282Z,50.56
2023-05-25T10:14:51.455Z,49.85
2023-05-25T10:25:00.756Z,50.76
2023-05-25T10:35:05.970Z,51.68
2023-05-25T10:45:11.300Z,52.04
2023-05-25T10:55:13.966Z,50.56
2023-05-25T11:05:36.190Z,50.58
2023-05-25T11:15:40.121Z,48.86
2023-05-25T11:25:45.020Z,45.58
2023-05-25T11:35:48.849Z,39.26
2023-05-25T11:45:57.813Z,27.95
2023-05-25T11:56:07.987Z,29.86
2023-05-25T12:06:25.376Z,29.97
2023-05-25T12:16:28.720Z,25.73
2023-05-25T12:26:33.217Z,33.70
2023-05-25T12:36:44.128Z,25.61
2023-05-25T12:46:48.546Z,25.27
2023-05-25T12:56:57.564Z,29.16
2023-05-25T13:07:01.669Z,28.58
2023-05-25T13:17:04.341Z,24.52
2023-05-25T13:27:08.320Z,26.80
2023-05-25T13:37:10.950Z,28.23
2023-05-25T13:47:15.013Z,31.58
2023-05-25T13:57:17.686Z,31.59
2023-05-25T14:07:21.686Z,32.97
2023-05-25T14:17:25.153Z,35.30
2023-05-25T14:27:29.153Z,35.97
2023-05-25T14:37:31.807Z,35.76
2023-05-25T14:47:36.256Z,36.92
2023-05-25T14:57:38.977Z,38.98
2023-05-25T15:07:42.989Z,39.58
2023-05-25T15:17:45.869Z,39.51
2023-05-25T15:27:49.956Z,37.90
2023-05-25T15:37:52.677Z,38.08
2023-05-25T15:47:56.733Z,39.40
2023-05-25T15:57:59.395Z,40.44
2023-05-25T16:08:03.390Z,40.03
2023-05-25T16:18:06.197Z,42.93
2023-05-25T16:28:10.944Z,41.70
2023-05-25T16:38:13.654Z,43.21
2023-05-25T16:48:17.715Z,43.31
2023-05-25T16:58:20.627Z,44.19
2023-05-25T17:08:24.624Z,43.84
2023-05-25T17:18:28.584Z,45.31
2023-05-25T17:28:32.937Z,46.22
2023-05-25T17:38:37.603Z,47.47
2023-05-25T17:48:41.589Z,48.60
2023-05-25T17:58:47.347Z,48.21
2023-05-25T18:08:51.612Z,49.63
2023-05-25T18:18:54.281Z,50.73
2023-05-25T18:28:58.277Z,53.66
2023-05-25T18:39:00.943Z,55.93
2023-05-25T18:49:05.312Z,57.97
2023-05-25T18:59:08.333Z,59.64
2023-05-25T19:09:13.391Z,61.05
2023-05-25T19:19:16.078Z,63.05
2023-05-25T19:29:20.101Z,64.99
2023-05-25T19:39:22.804Z,66.43
2023-05-25T19:49:27.204Z,67.78
2023-05-25T19:59:31.031Z,68.87
2023-05-25T20:09:35.683Z,70.00
2023-05-25T20:19:38.333Z,72.71
2023-05-25T20:29:42.722Z,72.67
2023-05-25T20:39:45.446Z,73.89
2023-05-25T20:49:49.414Z,74.64
2023-05-25T20:59:54.016Z,75.62
2023-05-25T21:09:59.312Z,76.23
2023-05-25T21:20:01.999Z,76.57
2023-05-25T21:30:06.988Z,76.82
2023-05-25T21:40:10.394Z,78.01
2023-05-25T21:50:14.586Z,78.55
2023-05-25T22:00:18.128Z,79.21
2023-05-25T22:10:22.109Z,79.88
2023-05-25T22:20:24.792Z,79.85
2023-05-25T22:30:28.922Z,80.66
2023-05-25T22:40:31.686Z,81.32
2023-05-25T22:50:35.864Z,83.07
2023-05-25T23:00:38.606Z,82.70
2023-05-25T23:10:42.726Z,83.37
2023-05-25T23:20:45.442Z,84.16
2023-05-25T23:30:49.852Z,84.99
2023-05-25T23:40:52.496Z,85.71
2023-05-25T23:50:56.585Z,86.93
